Time;durP1;ratioP1;P1;durP2;ratioP2;P2;SDS_P1;SDS_P2;PMS_P1;PMS_P2;Temp;Humidity;BMP_temperature;BMP_pressure;BME280_temperature;BME280_humidity;BME280_pressure;Samples;Min_cycle;Max_cycle;Signal;HPM_P1;HPM_P2
2021/06/29 00:00:23;;;;;;;6.93;5.83;;;19.50;99.90;;;;;;5053740;28;20544;-52
2021/06/29 00:03:01;;;;;;;6.77;6.27;;;19.50;99.90;;;;;;5055403;28;20912;-54
2021/06/29 00:05:28;;;;;;;6.50;6.00;;;19.50;99.90;;;;;;5033736;28;20162;-55
2021/06/29 00:07:53;;;;;;;5.57;5.07;;;19.50;99.90;;;;;;5033519;28;20406;-54
2021/06/29 00:10:19;;;;;;;5.37;4.87;;;19.30;99.90;;;;;;5033388;28;20426;-52
2021/06/29 00:12:45;;;;;;;5.80;5.20;;;19.20;99.90;;;;;;5047775;28;20174;-50
2021/06/29 00:15:11;;;;;;;4.90;4.40;;;19.20;99.90;;;;;;5053218;28;20409;-49
2021/06/29 00:17:37;;;;;;;6.80;6.20;;;19.20;99.90;;;;;;5035263;28;20265;-50
2021/06/29 00:20:03;;;;;;;5.67;5.27;;;19.20;99.90;;;;;;5053017;28;20476;-50
2021/06/29 00:22:29;;;;;;;6.60;6.10;;;19.30;99.90;;;;;;5046489;28;20181;-52
2021/06/29 00:24:55;;;;;;;6.50;6.00;;;19.30;99.90;;;;;;5047538;28;20973;-53
2021/06/29 00:27:20;;;;;;;6.63;6.17;;;19.30;99.90;;;;;;5052873;28;20232;-51
2021/06/29 00:29:46;;;;;;;6.70;6.10;;;19.30;99.90;;;;;;5053447;28;20190;-50
2021/06/29 00:32:11;;;;;;;6.63;6.13;;;19.10;99.90;;;;;;5053880;28;20253;-50
2021/06/29 00:34:37;;;;;;;7.53;6.83;;;19.10;99.90;;;;;;5053329;28;20327;-50
2021/06/29 00:37:03;;;;;;;7.13;6.47;;;19.00;99.90;;;;;;5052880;28;20616;-50
2021/06/29 00:39:28;;;;;;;6.80;6.20;;;19.00;99.90;;;;;;5052931;28;20281;-50
2021/06/29 00:41:54;;;;;;;6.20;5.70;;;19.00;99.90;;;;;;5053000;28;20453;-52
2021/06/29 00:44:21;;;;;;;5.27;4.80;;;19.00;99.90;;;;;;5052561;28;20162;-50
2021/06/29 00:46:48;;;;;;;5.70;5.30;;;18.90;99.90;;;;;;5053626;28;20177;-53
2021/06/29 00:49:14;;;;;;;5.80;4.60;;;18.90;99.90;;;;;;5052901;28;20420;-50
2021/06/29 00:51:40;;;;;;;6.27;5.77;;;19.00;99.90;;;;;;5052804;28;20404;-50
2021/06/29 00:54:06;;;;;;;5.57;5.10;;;19.10;99.90;;;;;;5052966;28;20397;-57
2021/06/29 00:56:32;;;;;;;4.53;4.23;;;19.20;99.90;;;;;;5053002;28;20450;-51
2021/06/29 00:58:57;;;;;;;5.10;4.70;;;19.30;99.90;;;;;;5053240;28;20543;-50
2021/06/29 01:01:23;;;;;;;5.70;5.30;;;19.50;99.90;;;;;;5053182;28;20463;-51
2021/06/29 01:03:49;;;;;;;5.67;5.00;;;19.70;99.90;;;;;;5055179;28;20293;-51
2021/06/29 01:06:15;;;;;;;6.27;5.77;;;19.70;99.90;;;;;;5056919;28;20169;-52
2021/06/29 01:08:41;;;;;;;5.23;4.93;;;19.70;99.90;;;;;;5057175;28;20214;-52
2021/06/29 01:11:07;;;;;;;5.83;5.33;;;19.60;99.90;;;;;;5056663;28;20409;-54
2021/06/29 01:13:44;;;;;;;5.53;4.90;;;19.50;99.90;;;;;;5056841;28;20409;-51
2021/06/29 01:16:11;;;;;;;4.73;4.33;;;19.50;99.90;;;;;;5056715;28;20763;-53
2021/06/29 01:18:39;;;;;;;4.73;4.37;;;19.60;99.90;;;;;;5055652;28;20460;-51
2021/06/29 01:21:06;;;;;;;5.17;4.77;;;19.50;99.90;;;;;;5056623;28;20758;-52
2021/06/29 01:23:33;;;;;;;5.20;4.90;;;19.50;99.90;;;;;;5056705;28;20526;-55
2021/06/29 01:26:29;;;;;;;4.00;3.70;;;19.30;99.90;;;;;;5056286;28;20450;-53
2021/06/29 01:29:07;;;;;;;5.30;4.63;;;19.10;99.90;;;;;;5054473;28;20999;-51
2021/06/29 01:31:35;;;;;;;5.27;4.80;;;19.20;99.90;;;;;;5056521;28;20747;-51
2021/06/29 01:34:01;;;;;;;3.90;3.60;;;19.20;99.90;;;;;;5056386;28;20408;-50
2021/06/29 01:36:34;;;;;;;4.93;4.30;;;19.20;99.90;;;;;;5056309;28;20975;-51
2021/06/29 01:39:00;;;;;;;4.00;3.70;;;19.20;99.90;;;;;;5056239;28;20214;-53
2021/06/29 01:41:26;;;;;;;4.20;3.90;;;19.10;99.90;;;;;;5056225;28;20448;-53
2021/06/29 01:43:55;;;;;;;4.60;4.30;;;19.20;99.90;;;;;;5056254;28;20905;-52
2021/06/29 01:46:23;;;;;;;6.83;4.83;;;19.00;99.90;;;;;;5056273;28;20403;-51
2021/06/29 01:48:51;;;;;;;4.67;4.27;;;19.10;99.90;;;;;;5055766;28;20507;-52
2021/06/29 01:51:18;;;;;;;6.57;4.60;;;19.40;99.90;;;;;;5056553;28;20939;-52
2021/06/29 01:53:45;;;;;;;5.17;4.77;;;19.40;99.90;;;;;;5056161;28;20401;-54
2021/06/29 01:56:15;;;;;;;4.47;4.17;;;19.30;99.90;;;;;;5073083;28;20470;-50
2021/06/29 01:58:44;;;;;;;6.27;5.67;;;19.20;99.90;;;;;;5075541;28;20479;-52
2021/06/29 02:01:09;;;;;;;4.30;4.00;;;19.00;99.90;;;;;;5076317;28;20431;-51
2021/06/29 02:03:35;;;;;;;5.50;5.10;;;18.80;99.90;;;;;;5075536;28;20881;-51
2021/06/29 02:06:00;;;;;;;4.70;4.30;;;18.80;99.90;;;;;;5075696;28;20165;-52
2021/06/29 02:08:26;;;;;;;4.93;4.50;;;18.80;99.90;;;;;;5075714;28;20190;-54
2021/06/29 02:10:52;;;;;;;5.13;4.73;;;18.70;99.90;;;;;;5075592;28;20174;-51
2021/06/29 02:13:18;;;;;;;5.43;5.03;;;18.80;99.90;;;;;;5055976;28;20425;-52
2021/06/29 02:15:43;;;;;;;5.23;4.83;;;18.90;99.90;;;;;;5055595;28;20186;-52
2021/06/29 02:18:09;;;;;;;4.93;4.53;;;18.80;99.90;;;;;;5055075;28;20563;-51
2021/06/29 02:20:35;;;;;;;5.20;4.80;;;18.80;99.90;;;;;;5055562;28;20159;-51
2021/06/29 02:23:00;;;;;;;4.67;3.87;;;19.00;99.90;;;;;;5055242;28;20623;-50
2021/06/29 02:25:26;;;;;;;5.53;4.80;;;19.00;99.90;;;;;;5055446;28;20171;-51
2021/06/29 02:27:52;;;;;;;5.20;4.80;;;19.00;99.90;;;;;;5036992;28;20635;-52
2021/06/29 02:30:18;;;;;;;4.80;4.40;;;19.10;99.90;;;;;;5055321;28;20198;-52
2021/06/29 02:32:43;;;;;;;5.17;4.77;;;19.30;99.90;;;;;;5055116;28;20175;-52
2021/06/29 02:35:09;;;;;;;6.07;5.37;;;19.40;99.90;;;;;;5055322;28;20459;-51
2021/06/29 02:37:35;;;;;;;4.90;4.50;;;19.50;99.90;;;;;;5055224;28;20502;-51
2021/06/29 02:40:01;;;;;;;5.63;5.23;;;19.50;99.90;;;;;;5055251;28;20429;-52
2021/06/29 02:42:26;;;;;;;5.33;4.83;;;19.60;99.90;;;;;;5054323;28;20179;-52
2021/06/29 02:44:52;;;;;;;5.03;4.63;;;19.50;99.90;;;;;;5055188;28;20171;-53
2021/06/29 02:47:18;;;;;;;5.63;5.07;;;19.50;99.90;;;;;;5055283;28;20174;-50
2021/06/29 02:49:43;;;;;;;5.17;4.63;;;19.60;99.90;;;;;;5055135;28;20186;-54
2021/06/29 02:52:09;;;;;;;4.97;4.57;;;19.60;99.90;;;;;;5055661;28;20187;-52
2021/06/29 02:54:35;;;;;;;4.50;3.90;;;19.60;99.90;;;;;;5055574;28;20171;-52
2021/06/29 02:57:01;;;;;;;3.97;3.77;;;19.60;99.90;;;;;;5055152;28;20206;-52
2021/06/29 02:59:26;;;;;;;4.83;3.83;;;19.50;99.90;;;;;;5054859;28;20240;-53
2021/06/29 03:01:52;;;;;;;4.90;4.60;;;19.60;99.90;;;;;;5054891;28;20170;-51
2021/06/29 03:04:18;;;;;;;5.33;4.80;;;19.60;99.90;;;;;;5054510;28;20179;-51
2021/06/29 03:06:43;;;;;;;5.00;4.60;;;19.40;99.90;;;;;;5055039;28;20361;-48
2021/06/29 03:09:09;;;;;;;6.30;4.77;;;19.20;99.90;;;;;;5054649;28;20191;-51
2021/06/29 03:11:36;;;;;;;5.83;4.90;;;19.30;99.90;;;;;;5055160;28;20174;-50
2021/06/29 03:14:03;;;;;;;4.60;4.20;;;19.40;99.90;;;;;;5053110;28;20660;-50
2021/06/29 03:16:29;;;;;;;4.40;4.10;;;19.40;99.90;;;;;;5043203;28;20431;-51
2021/06/29 03:18:54;;;;;;;7.80;5.63;;;19.40;99.90;;;;;;5081258;23;20901;-47
2021/06/29 03:21:20;;;;;;;5.10;4.70;;;19.50;99.90;;;;;;5074403;28;20177;-48
2021/06/29 03:23:46;;;;;;;5.43;5.03;;;19.50;99.90;;;;;;5073556;28;20174;-48
2021/06/29 03:26:12;;;;;;;5.50;5.13;;;19.50;99.90;;;;;;5073111;28;20397;-49
2021/06/29 03:28:37;;;;;;;6.03;5.50;;;19.50;99.90;;;;;;5073684;28;20197;-46
2021/06/29 03:31:03;;;;;;;5.87;5.37;;;19.50;99.90;;;;;;5073964;28;20161;-52
2021/06/29 03:33:29;;;;;;;8.50;5.30;;;19.50;99.90;;;;;;5073903;28;20582;-48
2021/06/29 03:35:54;;;;;;;5.37;4.90;;;19.50;99.90;;;;;;5073856;28;20166;-50
2021/06/29 03:38:20;;;;;;;4.97;4.47;;;19.40;99.90;;;;;;5073652;28;20635;-49
2021/06/29 03:40:45;;;;;;;5.63;5.17;;;19.20;99.90;;;;;;5073711;28;20197;-52
2021/06/29 03:43:11;;;;;;;5.97;5.30;;;19.20;99.90;;;;;;5071407;28;20178;-52
2021/06/29 03:45:37;;;;;;;8.70;5.20;;;19.10;99.90;;;;;;5065114;28;20639;-51
2021/06/29 03:48:03;;;;;;;5.60;5.20;;;18.90;99.90;;;;;;5062397;28;20170;-47
2021/06/29 03:50:28;;;;;;;5.77;5.37;;;19.00;99.90;;;;;;5058399;28;20189;-47
2021/06/29 03:52:54;;;;;;;4.83;4.43;;;19.10;99.90;;;;;;5074344;28;20827;-49
2021/06/29 03:55:20;;;;;;;5.27;4.70;;;19.30;99.90;;;;;;5073773;28;20177;-51
2021/06/29 03:57:46;;;;;;;6.13;5.60;;;19.30;99.90;;;;;;5073330;28;20198;-52
2021/06/29 04:00:13;;;;;;;4.60;4.30;;;19.20;99.90;;;;;;5073044;28;20430;-50
2021/06/29 04:02:38;;;;;;;5.23;4.83;;;19.20;99.90;;;;;;5073443;28;20169;-49
2021/06/29 04:05:08;;;;;;;5.23;4.83;;;19.20;99.90;;;;;;5073496;28;20401;-52
2021/06/29 04:07:35;;;;;;;4.90;4.50;;;19.20;99.90;;;;;;5073235;28;20215;-47
2021/06/29 04:10:03;;;;;;;5.40;5.10;;;19.30;99.90;;;;;;5072805;28;20988;-49
2021/06/29 04:12:29;;;;;;;4.97;4.67;;;19.30;99.90;;;;;;5073110;28;20424;-47
2021/06/29 04:14:54;;;;;;;6.20;5.70;;;19.20;99.90;;;;;;5072895;28;20474;-50
2021/06/29 04:17:20;;;;;;;4.90;4.43;;;19.20;99.90;;;;;;5055413;28;20221;-50
2021/06/29 04:19:45;;;;;;;4.43;4.13;;;19.20;99.90;;;;;;5072992;28;20205;-50
2021/06/29 04:22:11;;;;;;;4.70;4.30;;;19.30;99.90;;;;;;5072907;28;20158;-49
2021/06/29 04:24:37;;;;;;;4.77;4.33;;;19.40;99.90;;;;;;5073072;28;20522;-51
2021/06/29 04:27:04;;;;;;;5.17;4.00;;;19.40;99.90;;;;;;5072819;28;20216;-50
2021/06/29 04:29:29;;;;;;;5.20;4.77;;;19.40;99.90;;;;;;5072389;28;20674;-48
2021/06/29 04:31:55;;;;;;;5.00;4.70;;;19.40;99.90;;;;;;5072718;28;20592;-49
2021/06/29 04:34:20;;;;;;;4.57;4.27;;;19.20;99.90;;;;;;5073017;28;20163;-49
2021/06/29 04:36:46;;;;;;;6.23;5.73;;;18.80;99.90;;;;;;5072778;28;20699;-47
2021/06/29 04:39:12;;;;;;;6.50;5.87;;;18.70;99.90;;;;;;5072044;28;20209;-51
2021/06/29 04:41:37;;;;;;;6.40;5.90;;;18.60;99.90;;;;;;5073202;28;20164;-48
2021/06/29 04:44:04;;;;;;;7.70;6.90;;;18.70;99.90;;;;;;5072469;28;20170;-52
2021/06/29 04:46:30;;;;;;;7.33;6.73;;;19.00;99.90;;;;;;5072997;28;20162;-48
2021/06/29 04:48:56;;;;;;;9.00;8.10;;;18.70;99.90;;;;;;5072968;28;20430;-48
2021/06/29 04:51:22;;;;;;;7.07;6.53;;;18.80;99.90;;;;;;5073360;28;20753;-51
2021/06/29 04:53:47;;;;;;;6.23;5.73;;;18.90;99.90;;;;;;5072516;28;20495;-53
2021/06/29 04:56:19;;;;;;;6.90;6.27;;;18.90;99.90;;;;;;5072830;28;20184;-49
2021/06/29 04:58:44;;;;;;;8.03;5.80;;;19.00;99.90;;;;;;5072444;28;20255;-49
2021/06/29 05:01:11;;;;;;;6.60;6.10;;;19.10;99.90;;;;;;5072846;28;20396;-50
2021/06/29 05:03:37;;;;;;;7.40;6.80;;;19.30;99.90;;;;;;5073151;28;20245;-48
2021/06/29 05:06:03;;;;;;;6.50;5.50;;;19.40;99.90;;;;;;5073676;28;20915;-50
2021/06/29 05:08:29;;;;;;;5.53;5.13;;;19.40;99.90;;;;;;5072603;28;20424;-48
2021/06/29 05:10:54;;;;;;;5.77;5.37;;;19.30;99.90;;;;;;5072135;28;20166;-47
2021/06/29 05:13:20;;;;;;;5.70;5.30;;;19.50;99.90;;;;;;5072345;28;20201;-51
2021/06/29 05:15:45;;;;;;;6.17;5.67;;;19.70;99.90;;;;;;5072757;28;20514;-51
2021/06/29 05:18:11;;;;;;;7.10;6.60;;;19.80;99.90;;;;;;5072371;28;20671;-47
2021/06/29 05:20:37;;;;;;;5.97;5.47;;;19.90;99.90;;;;;;5072505;28;20210;-52
2021/06/29 05:23:02;;;;;;;8.10;7.50;;;20.00;99.90;;;;;;5054406;28;20170;-53
2021/06/29 05:25:29;;;;;;;6.90;5.70;;;19.90;99.90;;;;;;5072282;28;20173;-50
2021/06/29 05:27:54;;;;;;;5.63;5.23;;;19.80;99.90;;;;;;5072347;28;20178;-50
2021/06/29 05:30:20;;;;;;;6.60;6.10;;;19.80;99.90;;;;;;5054071;28;20436;-51
2021/06/29 05:32:45;;;;;;;7.10;6.57;;;19.60;99.90;;;;;;5072576;28;20232;-54
2021/06/29 05:35:11;;;;;;;7.87;7.17;;;19.60;99.90;;;;;;5072594;28;20534;-51
2021/06/29 05:37:37;;;;;;;6.03;5.53;;;19.60;99.90;;;;;;5072429;28;20201;-52
2021/06/29 05:40:04;;;;;;;6.70;6.13;;;19.60;99.90;;;;;;5072341;28;20192;-52
2021/06/29 05:42:29;;;;;;;7.93;7.33;;;19.60;99.90;;;;;;5072093;28;20661;-50
2021/06/29 05:44:55;;;;;;;5.83;5.43;;;19.60;99.90;;;;;;5072175;28;20404;-50
2021/06/29 05:47:22;;;;;;;6.50;6.00;;;19.60;99.90;;;;;;5072313;28;20687;-55
2021/06/29 05:49:48;;;;;;;5.93;5.53;;;19.70;99.90;;;;;;5073700;28;20495;-50
2021/06/29 05:52:13;;;;;;;5.60;5.10;;;19.60;99.90;;;;;;5075340;28;20484;-52
2021/06/29 05:54:41;;;;;;;6.53;5.90;;;19.60;99.90;;;;;;5077848;28;20445;-48
2021/06/29 05:57:07;;;;;;;5.80;5.30;;;19.70;99.90;;;;;;5075278;28;20181;-52
2021/06/29 05:59:32;;;;;;;6.20;5.70;;;19.70;99.90;;;;;;5075114;28;20430;-52
2021/06/29 06:01:58;;;;;;;6.83;5.10;;;19.90;99.90;;;;;;5075141;28;20401;-50
2021/06/29 06:04:24;;;;;;;5.47;5.07;;;19.90;99.90;;;;;;5075501;28;20173;-49
2021/06/29 06:06:49;;;;;;;6.10;5.60;;;20.10;99.90;;;;;;5074992;28;20653;-51
2021/06/29 06:09:15;;;;;;;4.33;3.93;;;20.20;99.90;;;;;;5074333;28;20250;-51
2021/06/29 06:11:40;;;;;;;4.47;4.17;;;20.30;99.90;;;;;;5074889;28;20637;-51
2021/06/29 06:14:06;;;;;;;8.00;4.03;;;20.50;99.90;;;;;;5074520;28;20200;-48
2021/06/29 06:16:32;;;;;;;3.80;3.50;;;20.50;99.90;;;;;;5075045;28;20598;-51
2021/06/29 06:18:58;;;;;;;4.97;4.60;;;20.60;99.90;;;;;;5074600;28;20201;-53
2021/06/29 06:21:23;;;;;;;5.20;4.70;;;20.70;99.90;;;;;;5074999;28;20423;-53
2021/06/29 06:23:49;;;;;;;4.07;3.77;;;20.60;99.90;;;;;;5074291;28;20212;-49
2021/06/29 06:26:14;;;;;;;3.97;3.67;;;20.50;99.90;;;;;;5074684;28;20162;-52
2021/06/29 06:28:40;;;;;;;5.27;3.73;;;20.70;99.90;;;;;;5074051;28;20635;-50
2021/06/29 06:31:08;;;;;;;4.47;4.07;;;20.90;99.90;;;;;;5075640;28;20214;-53
2021/06/29 06:33:34;;;;;;;3.50;3.20;;;21.00;99.90;;;;;;5074620;28;20181;-50
2021/06/29 06:36:00;;;;;;;4.10;3.67;;;20.80;99.90;;;;;;5074958;28;20894;-53
2021/06/29 06:38:25;;;;;;;3.77;3.50;;;20.80;99.90;;;;;;5069627;28;20732;-50
2021/06/29 06:40:51;;;;;;;5.43;4.10;;;20.70;99.90;;;;;;5062909;28;20265;-48
2021/06/29 06:43:16;;;;;;;5.80;5.20;;;20.80;99.90;;;;;;5063523;28;20633;-50
2021/06/29 06:45:42;;;;;;;4.00;3.70;;;20.80;99.90;;;;;;5074126;28;20166;-51
2021/06/29 06:48:08;;;;;;;4.00;3.60;;;21.00;99.90;;;;;;5074392;28;20647;-48
2021/06/29 06:50:34;;;;;;;3.83;3.43;;;21.20;99.90;;;;;;5074272;28;20198;-53
2021/06/29 06:52:59;;;;;;;3.10;2.90;;;21.30;99.90;;;;;;5074405;28;20170;-51
2021/06/29 06:55:25;;;;;;;3.50;3.10;;;21.40;99.90;;;;;;5074058;28;20185;-51
2021/06/29 06:57:53;;;;;;;2.60;2.40;;;21.40;99.90;;;;;;5074129;28;20200;-48
2021/06/29 07:00:20;;;;;;;6.20;2.93;;;21.40;99.90;;;;;;5072894;28;20429;-53
2021/06/29 07:02:46;;;;;;;2.80;2.50;;;21.10;99.90;;;;;;5073552;28;20523;-50
2021/06/29 07:05:12;;;;;;;7.63;3.00;;;21.10;99.90;;;;;;5061577;28;20772;-53
2021/06/29 07:07:38;;;;;;;2.33;2.00;;;21.20;99.90;;;;;;5054245;28;20492;-51
2021/06/29 07:10:05;;;;;;;2.87;2.53;;;21.20;99.90;;;;;;5053694;28;20191;-50
2021/06/29 07:12:31;;;;;;;8.43;2.83;;;21.30;99.90;;;;;;5056801;28;20177;-48
2021/06/29 07:14:56;;;;;;;4.07;2.73;;;21.40;99.90;;;;;;5073655;28;20435;-52
2021/06/29 07:17:23;;;;;;;2.90;2.60;;;21.40;99.90;;;;;;5073908;28;20190;-50
2021/06/29 07:19:49;;;;;;;2.77;2.57;;;21.50;99.90;;;;;;5074429;28;20233;-51
2021/06/29 07:22:14;;;;;;;2.30;2.10;;;21.60;99.90;;;;;;5074069;28;20905;-47
2021/06/29 07:24:40;;;;;;;2.90;2.20;;;21.50;99.90;;;;;;5073998;28;20392;-51
2021/06/29 07:27:07;;;;;;;2.60;2.40;;;21.50;99.90;;;;;;5074247;28;20631;-53
2021/06/29 07:29:32;;;;;;;2.90;2.60;;;21.80;99.90;;;;;;5073510;28;20721;-48
2021/06/29 07:31:58;;;;;;;3.00;2.23;;;22.00;99.90;;;;;;5074229;28;20401;-51
2021/06/29 07:34:24;;;;;;;3.27;2.83;;;22.00;99.90;;;;;;5074077;28;20589;-53
2021/06/29 07:36:49;;;;;;;2.83;2.03;;;22.10;99.90;;;;;;5073848;28;20392;-48
2021/06/29 07:39:15;;;;;;;2.67;2.47;;;22.20;99.90;;;;;;5073421;28;20666;-52
2021/06/29 07:41:41;;;;;;;2.50;2.30;;;22.20;99.90;;;;;;5073501;28;20162;-51
2021/06/29 07:44:06;;;;;;;2.27;1.80;;;22.30;99.90;;;;;;5073201;28;20166;-48
2021/06/29 07:46:32;;;;;;;2.10;1.90;;;22.20;99.90;;;;;;5073493;28;20215;-54
2021/06/29 07:48:57;;;;;;;2.80;1.90;;;22.00;99.90;;;;;;5075794;28;20192;-50
2021/06/29 07:51:23;;;;;;;2.50;2.10;;;22.40;99.90;;;;;;5072776;28;20170;-51
2021/06/29 07:53:49;;;;;;;1.50;1.40;;;22.50;99.90;;;;;;5073241;28;20177;-52
2021/06/29 07:56:14;;;;;;;1.97;1.80;;;22.60;99.90;;;;;;5073033;28;20165;-49
2021/06/29 07:58:44;;;;;;;2.10;2.00;;;22.70;99.90;;;;;;5073009;28;20280;-47
2021/06/29 08:01:11;;;;;;;1.80;1.67;;;22.70;99.90;;;;;;5073063;28;20177;-50
2021/06/29 08:03:36;;;;;;;1.73;1.63;;;22.70;99.90;;;;;;5074016;28;20392;-52
2021/06/29 08:06:03;;;;;;;1.60;1.50;;;22.60;99.90;;;;;;5073451;28;20936;-50
2021/06/29 08:08:29;;;;;;;1.87;1.77;;;22.80;99.90;;;;;;5073462;28;20174;-50
2021/06/29 08:10:56;;;;;;;3.37;1.80;;;22.80;99.90;;;;;;5072972;28;20404;-49
2021/06/29 08:13:21;;;;;;;4.07;1.80;;;22.80;99.90;;;;;;5072982;28;20469;-49
2021/06/29 08:15:47;;;;;;;1.60;1.50;;;22.60;99.90;;;;;;5073117;28;20404;-52
2021/06/29 08:18:13;;;;;;;1.80;1.70;;;22.60;99.90;;;;;;5073290;28;20181;-52
2021/06/29 08:20:38;;;;;;;2.70;2.50;;;22.80;99.90;;;;;;5073195;28;20198;-54
2021/06/29 08:23:04;;;;;;;2.70;2.07;;;23.00;99.90;;;;;;5073399;28;20741;-50
2021/06/29 08:25:30;;;;;;;2.00;1.80;;;22.90;99.90;;;;;;5072980;28;20158;-53
2021/06/29 08:27:56;;;;;;;2.27;2.07;;;23.00;99.90;;;;;;5073472;28;20181;-50
2021/06/29 08:30:22;;;;;;;1.50;1.30;;;23.00;99.90;;;;;;5072617;28;20420;-51
2021/06/29 08:32:47;;;;;;;1.50;1.40;;;23.20;99.90;;;;;;5073211;28;20195;-52
2021/06/29 08:35:13;;;;;;;3.67;1.70;;;23.20;99.90;;;;;;5073188;28;20174;-54
2021/06/29 08:37:41;;;;;;;2.70;2.20;;;23.20;99.90;;;;;;5072909;28;20186;-49
2021/06/29 08:40:09;;;;;;;4.37;1.80;;;23.50;99.90;;;;;;5072620;28;20420;-51
2021/06/29 08:42:37;;;;;;;1.97;1.40;;;23.70;99.90;;;;;;5073472;28;20415;-52
2021/06/29 08:45:05;;;;;;;1.60;1.40;;;23.50;99.90;;;;;;5072843;28;20455;-52
2021/06/29 08:47:33;;;;;;;2.50;2.03;;;23.50;99.90;;;;;;5073284;28;20491;-51
2021/06/29 08:49:59;;;;;;;1.80;1.70;;;23.60;99.90;;;;;;5072548;28;20428;-51
2021/06/29 08:52:25;;;;;;;2.30;2.03;;;23.60;99.90;;;;;;5072670;28;20920;-51
2021/06/29 08:54:51;;;;;;;2.37;1.83;;;23.70;99.90;;;;;;5072556;28;20413;-52
2021/06/29 08:57:16;;;;;;;1.83;1.73;;;23.60;99.90;;;;;;5072646;28;20404;-54
2021/06/29 08:59:42;;;;;;;1.77;1.60;;;24.00;99.90;;;;;;5072306;28;20239;-49
2021/06/29 09:02:07;;;;;;;2.00;1.90;;;24.20;99.90;;;;;;5072517;28;20627;-50
2021/06/29 09:04:43;;;;;;;3.67;1.57;;;24.30;99.90;;;;;;5073376;28;20245;-51
2021/06/29 09:07:22;;;;;;;1.63;1.53;;;24.30;99.90;;;;;;5072774;28;20172;-50
2021/06/29 09:09:59;;;;;;;1.73;1.63;;;24.20;99.90;;;;;;5072497;28;20459;-51
2021/06/29 09:12:45;;;;;;;1.97;1.70;;;24.40;99.90;;;;;;5054682;28;20412;-50
2021/06/29 09:15:23;;;;;;;1.70;1.60;;;24.50;99.90;;;;;;5072211;28;20396;-53
2021/06/29 09:17:51;;;;;;;2.10;1.73;;;24.50;99.90;;;;;;5072285;28;20492;-50
2021/06/29 09:20:29;;;;;;;2.10;2.00;;;24.50;99.90;;;;;;5078242;22;21011;-52
2021/06/29 09:23:08;;;;;;;1.73;1.63;;;24.50;99.90;;;;;;5052688;28;20377;-55
2021/06/29 09:25:34;;;;;;;2.17;1.90;;;24.70;99.90;;;;;;5055877;28;20383;-51
2021/06/29 09:28:00;;;;;;;1.90;1.80;;;25.00;99.90;;;;;;5056338;28;20401;-51
2021/06/29 09:30:46;;;;;;;2.30;2.07;;;24.80;99.90;;;;;;5055294;28;20776;-51
2021/06/29 09:33:18;;;;;;;2.17;1.97;;;25.00;99.90;;;;;;5047140;28;20178;-54
2021/06/29 09:35:47;;;;;;;1.93;1.73;;;24.90;99.90;;;;;;5056234;28;20405;-53
2021/06/29 09:38:20;;;;;;;4.70;1.80;;;24.80;99.90;;;;;;5055860;28;20432;-52
2021/06/29 09:40:47;;;;;;;1.80;1.70;;;24.80;99.90;;;;;;5058534;28;20423;-51
2021/06/29 09:43:17;;;;;;;3.30;1.57;;;25.10;99.90;;;;;;5056160;28;20451;-53
2021/06/29 09:45:46;;;;;;;2.60;2.20;;;25.40;99.90;;;;;;5055919;28;20421;-50
2021/06/29 09:48:14;;;;;;;1.60;1.50;;;25.50;99.90;;;;;;5055639;28;20397;-50
2021/06/29 09:50:40;;;;;;;1.90;1.80;;;25.20;99.90;;;;;;5055561;28;20491;-53
2021/06/29 09:53:22;;;;;;;1.50;1.40;;;25.20;99.90;;;;;;5038151;28;20409;-51
2021/06/29 09:55:51;;;;;;;1.70;1.33;;;24.90;99.90;;;;;;5055792;28;20646;-50
2021/06/29 09:58:18;;;;;;;1.30;1.20;;;25.00;99.90;;;;;;5055656;28;20440;-52
2021/06/29 10:00:50;;;;;;;1.50;1.40;;;25.40;99.90;;;;;;5055703;28;20424;-54
2021/06/29 10:03:20;;;;;;;1.50;1.40;;;25.60;99.90;;;;;;5056782;28;20764;-54
2021/06/29 10:05:46;;;;;;;2.47;1.80;;;25.60;99.90;;;;;;5055652;28;20420;-52
2021/06/29 10:08:22;;;;;;;1.87;1.77;;;25.80;99.90;;;;;;5055448;28;20931;-54
2021/06/29 10:10:47;;;;;;;1.57;1.27;;;25.80;99.90;;;;;;5055311;28;20427;-51
2021/06/29 10:13:17;;;;;;;1.90;1.60;;;25.90;99.90;;;;;;5055139;28;20783;-52
2021/06/29 10:15:44;;;;;;;3.43;1.60;;;25.80;99.90;;;;;;5036860;28;20678;-53
2021/06/29 10:18:10;;;;;;;1.77;1.40;;;25.50;99.90;;;;;;5037291;28;21008;-54
2021/06/29 10:20:50;;;;;;;1.77;1.40;;;25.60;99.90;;;;;;5055097;28;20441;-54
2021/06/29 10:23:16;;;;;;;1.43;1.33;;;25.70;99.90;;;;;;5055206;28;20174;-52
2021/06/29 10:25:44;;;;;;;1.80;1.43;;;25.90;99.90;;;;;;5055244;28;20436;-51
2021/06/29 10:28:14;;;;;;;1.67;1.57;;;25.80;99.90;;;;;;5055089;28;20174;-51
2021/06/29 10:30:41;;;;;;;1.57;1.47;;;26.10;99.90;;;;;;5055133;28;20512;-49
2021/06/29 10:33:08;;;;;;;1.53;1.43;;;26.40;99.90;;;;;;5055283;28;20409;-55
2021/06/29 10:35:35;;;;;;;2.60;1.73;;;26.40;99.90;;;;;;5053873;28;20490;-54
2021/06/29 10:38:00;;;;;;;1.53;1.43;;;26.50;99.90;;;;;;5055062;28;20440;-54
2021/06/29 10:40:27;;;;;;;2.23;2.03;;;26.60;99.90;;;;;;5054807;28;20934;-53
2021/06/29 10:42:58;;;;;;;1.63;1.53;;;26.60;99.90;;;;;;5055142;28;20549;-53
2021/06/29 10:45:32;;;;;;;1.40;1.30;;;26.80;99.90;;;;;;5054809;28;20398;-54
2021/06/29 10:48:23;;;;;;;1.87;1.77;;;27.10;99.90;;;;;;5055377;28;20400;-51
2021/06/29 10:50:51;;;;;;;2.03;1.83;;;27.10;99.90;;;;;;5055144;28;20799;-53
2021/06/29 10:53:34;;;;;;;2.07;1.87;;;27.10;99.90;;;;;;5055031;28;20401;-52
2021/06/29 10:56:10;;;;;;;1.70;1.60;;;27.20;99.90;;;;;;5054632;28;20412;-54
2021/06/29 10:58:41;;;;;;;1.57;1.40;;;27.50;99.90;;;;;;5054985;28;20605;-51
2021/06/29 11:01:26;;;;;;;2.00;1.90;;;27.20;99.90;;;;;;5054482;28;20417;-54
2021/06/29 11:04:00;;;;;;;3.93;2.63;;;26.60;99.90;;;;;;5054444;28;20401;-53
2021/06/29 11:06:47;;;;;;;2.13;1.97;;;26.50;99.90;;;;;;5054317;28;20390;-55
2021/06/29 11:09:20;;;;;;;2.17;1.83;;;26.80;99.90;;;;;;5054555;28;20425;-51
2021/06/29 11:12:24;;;;;;;2.17;1.87;;;27.30;99.90;;;;;;5054229;28;20382;-53
2021/06/29 11:14:52;;;;;;;2.53;1.80;;;27.30;99.90;;;;;;5034343;28;20406;-56
2021/06/29 11:17:22;;;;;;;1.70;1.60;;;27.70;99.90;;;;;;5034690;28;20410;-53
2021/06/29 11:20:08;;;;;;;1.80;1.60;;;27.90;99.90;;;;;;5034444;28;20442;-52
2021/06/29 11:22:52;;;;;;;3.23;1.50;;;27.80;99.90;;;;;;5034810;28;20465;-54
2021/06/29 11:25:38;;;;;;;1.73;1.47;;;27.80;99.90;;;;;;5034135;28;20394;-53
2021/06/29 11:28:08;;;;;;;2.17;1.97;;;27.90;98.40;;;;;;5034355;28;20401;-53
2021/06/29 11:30:53;;;;;;;2.20;2.00;;;28.00;98.70;;;;;;5051769;28;20428;-55
2021/06/29 11:33:40;;;;;;;2.20;2.00;;;28.60;98.30;;;;;;5053944;28;20389;-55
2021/06/29 11:36:08;;;;;;;2.13;1.50;;;29.40;96.70;;;;;;5054108;28;20413;-54
2021/06/29 11:38:38;;;;;;;2.50;2.17;;;30.10;96.20;;;;;;5054052;28;20445;-53
2021/06/29 11:41:33;;;;;;;2.13;1.77;;;30.70;95.10;;;;;;5053761;28;20837;-56
2021/06/29 11:44:19;;;;;;;2.13;1.90;;;30.80;95.30;;;;;;5053744;28;20399;-56
2021/06/29 11:46:59;;;;;;;1.57;1.47;;;30.60;94.30;;;;;;5012777;28;20397;-56
2021/06/29 11:49:28;;;;;;;4.37;1.97;;;31.10;92.70;;;;;;5053810;28;20425;-56
2021/06/29 11:51:57;;;;;;;2.10;1.53;;;31.10;92.10;;;;;;5056353;28;20401;-54
2021/06/29 11:54:38;;;;;;;2.03;1.93;;;30.80;92.40;;;;;;5054464;28;20451;-56
2021/06/29 11:57:20;;;;;;;1.90;1.67;;;30.30;93.10;;;;;;5053897;28;20397;-56
2021/06/29 11:59:46;;;;;;;3.40;1.90;;;29.80;94.90;;;;;;5051105;28;20425;-56
2021/06/29 12:02:29;;;;;;;1.67;1.57;;;30.50;93.50;;;;;;5033882;28;20532;-53
2021/06/29 12:04:59;;;;;;;2.27;1.80;;;30.40;95.30;;;;;;5034275;28;20559;-56
2021/06/29 12:07:36;;;;;;;1.90;1.80;;;30.60;93.70;;;;;;5033649;28;20958;-56
2021/06/29 12:10:09;;;;;;;2.53;1.80;;;29.60;93.70;;;;;;5033758;28;20900;-55
2021/06/29 12:12:37;;;;;;;1.73;1.63;;;29.30;96.10;;;;;;5037301;28;20464;-57
2021/06/29 12:15:12;;;;;;;2.07;1.97;;;30.30;93.20;;;;;;5053108;28;20401;-55
2021/06/29 12:17:49;;;;;;;2.03;1.83;;;30.70;93.70;;;;;;5053062;28;20455;-55
2021/06/29 12:20:16;;;;;;;1.90;1.80;;;30.10;94.60;;;;;;5053193;28;20976;-56
2021/06/29 12:22:44;;;;;;;1.70;1.43;;;30.20;94.20;;;;;;5053165;28;20413;-55
2021/06/29 12:25:25;;;;;;;4.63;1.90;;;30.50;93.50;;;;;;5047605;28;20455;-54
2021/06/29 12:28:00;;;;;;;2.63;2.10;;;31.00;92.60;;;;;;5033027;28;20410;-55
2021/06/29 12:30:26;;;;;;;2.67;1.70;;;32.20;90.40;;;;;;5033070;28;20865;-54
2021/06/29 12:32:52;;;;;;;2.03;1.83;;;31.80;89.50;;;;;;5032861;28;20414;-56
2021/06/29 12:35:18;;;;;;;1.60;1.50;;;31.00;91.10;;;;;;5033052;28;20171;-55
2021/06/29 12:37:58;;;;;;;1.53;1.43;;;31.00;92.10;;;;;;5033076;28;20499;-55
2021/06/29 12:40:25;;;;;;;1.70;1.60;;;31.30;91.90;;;;;;5032660;28;20513;-57
2021/06/29 12:42:52;;;;;;;2.03;1.87;;;30.80;91.40;;;;;;5038921;28;20835;-57
2021/06/29 12:45:19;;;;;;;3.17;2.07;;;30.30;91.20;;;;;;5051536;28;20413;-57
2021/06/29 12:47:45;;;;;;;2.80;1.73;;;30.00;92.20;;;;;;5052894;28;20401;-56
2021/06/29 12:50:11;;;;;;;6.47;2.23;;;29.30;92.80;;;;;;5052784;28;20432;-54
2021/06/29 12:52:36;;;;;;;1.90;1.80;;;29.20;93.80;;;;;;5052832;28;20405;-51